createdAt,value
2018-06-08T00:00:55.676Z,0
2018-06-08T00:01:55.930Z,0
2018-06-08T00:02:55.408Z,0
2018-06-08T00:03:55.921Z,0
2018-06-08T00:04:56.183Z,0
2018-06-08T00:05:55.920Z,0
2018-06-08T00:06:55.647Z,0
2018-06-08T00:07:55.644Z,0
2018-06-08T00:08:55.642Z,0
2018-06-08T00:09:55.637Z,0
2018-06-08T00:10:56.149Z,0
2018-06-08T00:11:55.375Z,0
2018-06-08T00:12:56.148Z,0
2018-06-08T00:13:55.621Z,0
2018-06-08T00:14:55.612Z,0
2018-06-08T00:15:55.875Z,0
2018-06-08T00:16:55.870Z,0
2018-06-08T00:17:55.601Z,0
2018-06-08T00:18:55.856Z,0
2018-06-08T00:19:55.592Z,0
2018-06-08T00:20:55.844Z,0
2018-06-08T00:21:55.845Z,0
2018-06-08T00:22:55.834Z,0
2018-06-08T00:23:55.835Z,0
2018-06-08T00:24:55.571Z,0
2018-06-08T00:25:55.827Z,0
2018-06-08T00:26:55.809Z,0
2018-06-08T00:27:55.810Z,0
2018-06-08T00:28:56.070Z,0
2018-06-08T00:29:55.810Z,0
2018-06-08T00:30:55.809Z,0
2018-06-08T00:31:55.281Z,0
2018-06-08T00:32:55.531Z,0
2018-06-08T00:33:55.782Z,0
2018-06-08T00:34:55.525Z,0
2018-06-08T00:35:55.779Z,0
2018-06-08T00:36:55.510Z,0
2018-06-08T00:37:55.772Z,0
2018-06-08T00:38:55.766Z,0
2018-06-08T00:39:56.050Z,0
2018-06-08T00:40:56.015Z,0
2018-06-08T00:41:55.753Z,0
2018-06-08T00:42:55.746Z,0
2018-06-08T00:43:55.736Z,0
2018-06-08T00:44:55.734Z,0
2018-06-08T00:45:55.475Z,0
2018-06-08T00:46:55.724Z,0
2018-06-08T00:47:55.739Z,0
2018-06-08T00:48:55.199Z,0
2018-06-08T00:49:55.710Z,0
2018-06-08T00:50:55.717Z,0
2018-06-08T00:51:55.704Z,0
2018-06-08T00:52:55.693Z,0
2018-06-08T00:53:55.689Z,0
2018-06-08T00:54:55.952Z,0
2018-06-08T00:55:55.681Z,0
2018-06-08T00:56:55.428Z,0
2018-06-08T00:57:55.930Z,0
2018-06-08T00:58:55.669Z,0
2018-06-08T00:59:55.917Z,0
2018-06-08T01:00:55.666Z,0
2018-06-08T01:01:55.653Z,0
2018-06-08T01:02:55.656Z,0
2018-06-08T01:03:55.639Z,0
2018-06-08T01:04:55.386Z,0
2018-06-08T01:05:55.638Z,0
2018-06-08T01:06:55.628Z,0
2018-06-08T01:07:55.367Z,0
2018-06-08T01:08:55.100Z,0
2018-06-08T01:09:55.616Z,0
2018-06-08T01:10:55.868Z,0
2018-06-08T01:11:55.866Z,0
2018-06-08T01:12:55.612Z,0
2018-06-08T01:13:55.082Z,0
2018-06-08T01:14:55.604Z,0
2018-06-08T01:15:55.628Z,0
2018-06-08T01:16:55.577Z,0
2018-06-08T01:17:55.589Z,0
2018-06-08T01:18:55.567Z,0
2018-06-08T01:19:55.591Z,0
2018-06-08T01:20:55.311Z,0
2018-06-08T01:21:55.553Z,0
2018-06-08T01:22:55.564Z,0
2018-06-08T01:23:55.549Z,0
2018-06-08T01:24:55.284Z,0
2018-06-08T01:25:55.281Z,0
2018-06-08T01:26:55.538Z,0
2018-06-08T01:27:55.530Z,0
2018-06-08T01:28:55.784Z,0
2018-06-08T01:29:55.256Z,0
2018-06-08T01:30:55.257Z,0
2018-06-08T01:31:55.244Z,0
2018-06-08T01:32:55.246Z,0
2018-06-08T01:33:55.759Z,0
2018-06-08T01:34:55.232Z,0
2018-06-08T01:35:55.490Z,0
2018-06-08T01:36:55.226Z,0
2018-06-08T01:37:55.797Z,0
2018-06-08T01:38:55.565Z,0
2018-06-08T01:39:55.685Z,0
2018-06-08T01:40:55.467Z,0
2018-06-08T01:41:55.551Z,0
2018-06-08T01:42:55.465Z,0
2018-06-08T01:43:55.185Z,0
2018-06-08T01:44:55.185Z,0
2018-06-08T01:45:55.181Z,0
2018-06-08T01:46:55.178Z,0
2018-06-08T01:47:55.685Z,0
2018-06-08T01:48:55.420Z,0
2018-06-08T01:49:55.421Z,0
2018-06-08T01:50:55.427Z,0
2018-06-08T01:51:55.668Z,0
2018-06-08T01:52:55.660Z,0
2018-06-08T01:53:55.141Z,0
2018-06-08T01:54:55.389Z,0
2018-06-08T01:55:55.387Z,0
2018-06-08T01:56:55.635Z,0
2018-06-08T01:57:55.551Z,0
2018-06-08T01:58:55.287Z,0
2018-06-08T01:59:55.618Z,0
2018-06-08T02:00:55.507Z,0
2018-06-08T02:01:55.111Z,0
2018-06-08T02:02:55.096Z,0
2018-06-08T02:03:55.346Z,0
2018-06-08T02:04:54.828Z,0
2018-06-08T02:05:55.074Z,0
2018-06-08T02:06:54.812Z,0
2018-06-08T02:07:55.576Z,0
2018-06-08T02:08:55.321Z,0
2018-06-08T02:09:55.575Z,0
2018-06-08T02:10:55.564Z,0
2018-06-08T02:11:55.560Z,0
2018-06-08T02:12:55.298Z,0
2018-06-08T02:13:55.551Z,0
2018-06-08T02:14:55.544Z,0
2018-06-08T02:15:55.299Z,0
2018-06-08T02:16:55.528Z,0
2018-06-08T02:17:55.020Z,0
2018-06-08T02:18:55.262Z,0
2018-06-08T02:19:55.002Z,0
2018-06-08T02:20:55.516Z,0
2018-06-08T02:21:54.994Z,0
2018-06-08T02:22:54.985Z,0
2018-06-08T02:23:54.978Z,0
2018-06-08T02:24:54.975Z,0
2018-06-08T02:25:54.965Z,0
2018-06-08T02:26:55.480Z,0
2018-06-08T02:27:55.219Z,0
2018-06-08T02:28:54.948Z,0
2018-06-08T02:29:55.212Z,0
2018-06-08T02:30:55.204Z,0
2018-06-08T02:31:55.249Z,0
2018-06-08T02:32:55.449Z,0
2018-06-08T02:33:54.929Z,0
2018-06-08T02:34:55.182Z,0
2018-06-08T02:35:55.180Z,0
2018-06-08T02:36:55.172Z,0
2018-06-08T02:37:55.165Z,0
2018-06-08T02:38:54.645Z,0
2018-06-08T02:39:54.902Z,0
2018-06-08T02:40:55.175Z,0
2018-06-08T02:41:55.167Z,0
2018-06-08T02:42:55.136Z,0
2018-06-08T02:43:55.394Z,0
2018-06-08T02:44:55.387Z,0
2018-06-08T02:45:55.119Z,0
2018-06-08T02:46:54.853Z,0
2018-06-08T02:47:55.375Z,0
2018-06-08T02:48:55.562Z,0
2018-06-08T02:49:55.095Z,0
2018-06-08T02:50:55.357Z,0
2018-06-08T02:51:55.091Z,0
2018-06-08T02:52:55.352Z,5
2018-06-08T02:53:54.820Z,5
2018-06-08T02:54:55.330Z,5
2018-06-08T02:55:54.831Z,5
2018-06-08T02:56:55.057Z,5
2018-06-08T02:57:55.055Z,5
2018-06-08T02:58:55.076Z,5
2018-06-08T02:59:55.293Z,5
2018-06-08T03:00:54.777Z,5
2018-06-08T03:01:55.029Z,5
2018-06-08T03:02:55.026Z,10
2018-06-08T03:03:55.295Z,10
2018-06-08T03:04:54.749Z,10
2018-06-08T03:05:54.776Z,10
2018-06-08T03:06:55.343Z,10
2018-06-08T03:07:54.999Z,10
2018-06-08T03:08:54.988Z,10
2018-06-08T03:09:54.471Z,15
2018-06-08T03:10:54.988Z,15
2018-06-08T03:11:54.202Z,15
2018-06-08T03:12:54.972Z,15
2018-06-08T03:13:54.968Z,15
2018-06-08T03:14:55.226Z,15
2018-06-08T03:15:55.207Z,20
2018-06-08T03:16:54.941Z,20
2018-06-08T03:17:54.934Z,20
2018-06-08T03:18:54.931Z,20
2018-06-08T03:19:54.925Z,20
2018-06-08T03:20:55.182Z,25
2018-06-08T03:21:54.660Z,25
2018-06-08T03:22:54.914Z,25
2018-06-08T03:23:54.387Z,25
2018-06-08T03:24:54.906Z,30
2018-06-08T03:25:54.904Z,30
2018-06-08T03:26:54.889Z,30
2018-06-08T03:27:54.879Z,30
2018-06-08T03:28:54.870Z,35
2018-06-08T03:29:54.867Z,35
2018-06-08T03:30:54.949Z,35
2018-06-08T03:31:55.129Z,35
2018-06-08T03:32:54.599Z,40
2018-06-08T03:33:55.104Z,40
2018-06-08T03:34:55.098Z,40
2018-06-08T03:35:55.147Z,40
2018-06-08T03:36:54.850Z,45
2018-06-08T03:37:54.828Z,45
2018-06-08T03:38:54.564Z,45
2018-06-08T03:39:54.299Z,50
2018-06-08T03:40:55.070Z,50
2018-06-08T03:41:54.809Z,50
2018-06-08T03:42:54.800Z,50
2018-06-08T03:43:54.804Z,55
2018-06-08T03:44:54.796Z,55
2018-06-08T03:45:55.045Z,55
2018-06-08T03:46:54.777Z,60
2018-06-08T03:47:55.030Z,60
2018-06-08T03:48:55.075Z,60
2018-06-08T03:49:54.759Z,65
2018-06-08T03:50:55.014Z,65
2018-06-08T03:51:54.238Z,65
2018-06-08T03:52:55.006Z,65
2018-06-08T03:53:54.484Z,70
2018-06-08T03:54:55.001Z,70
2018-06-08T03:55:54.782Z,75
2018-06-08T03:56:54.476Z,75
2018-06-08T03:57:54.464Z,75
2018-06-08T03:58:54.970Z,80
2018-06-08T03:59:54.709Z,80
2018-06-08T04:00:54.706Z,80
2018-06-08T04:01:54.440Z,80
2018-06-08T04:02:54.433Z,85
2018-06-08T04:03:54.430Z,85
2018-06-08T04:04:54.429Z,85
2018-06-08T04:05:54.683Z,90
2018-06-08T04:06:54.934Z,90
2018-06-08T04:07:54.922Z,90
2018-06-08T04:08:54.419Z,95
2018-06-08T04:09:54.396Z,95
2018-06-08T04:10:54.912Z,100
2018-06-08T04:11:54.906Z,100
2018-06-08T04:12:54.906Z,100
2018-06-08T04:13:54.905Z,105
2018-06-08T04:14:54.381Z,105
2018-06-08T04:15:54.628Z,110
2018-06-08T04:16:54.377Z,110
2018-06-08T04:17:54.625Z,110
2018-06-08T04:18:54.868Z,110
2018-06-08T04:19:54.094Z,110
2018-06-08T04:20:54.862Z,110
2018-06-08T04:21:54.609Z,115
2018-06-08T04:22:54.878Z,115
2018-06-08T04:23:54.903Z,115
2018-06-08T04:24:54.585Z,120
2018-06-08T04:25:54.728Z,120
2018-06-08T04:26:54.573Z,120
2018-06-08T04:27:54.825Z,125
2018-06-08T04:28:54.311Z,125
2018-06-08T04:29:54.300Z,125
2018-06-08T04:30:54.554Z,130
2018-06-08T04:31:54.309Z,130
2018-06-08T04:32:55.129Z,130
2018-06-08T04:33:54.282Z,130
2018-06-08T04:34:54.027Z,135
2018-06-08T04:35:54.536Z,140
2018-06-08T04:36:54.777Z,140
2018-06-08T04:37:54.525Z,140
2018-06-08T04:38:54.265Z,140
2018-06-08T04:39:54.768Z,140
2018-06-08T04:40:54.523Z,140
2018-06-08T04:41:54.509Z,140
2018-06-08T04:42:53.986Z,140
2018-06-08T04:43:54.238Z,140
2018-06-08T04:44:54.759Z,140
2018-06-08T04:45:54.754Z,140
2018-06-08T04:46:54.489Z,140
2018-06-08T04:47:53.971Z,140
2018-06-08T04:48:54.222Z,140
2018-06-08T04:49:54.478Z,145
2018-06-08T04:50:53.957Z,140
2018-06-08T04:51:54.654Z,140
2018-06-08T04:52:54.219Z,145
2018-06-08T04:53:53.948Z,145
2018-06-08T04:54:53.942Z,140
2018-06-08T04:55:54.455Z,140
2018-06-08T04:56:54.464Z,145
2018-06-08T04:57:54.447Z,145
2018-06-08T04:58:54.186Z,145
2018-06-08T04:59:54.440Z,145
2018-06-08T05:00:54.185Z,145
2018-06-08T05:01:54.180Z,145
2018-06-08T05:02:54.434Z,150
2018-06-08T05:03:54.731Z,150
2018-06-08T05:04:54.443Z,150
2018-06-08T05:05:54.422Z,155
2018-06-08T05:06:53.898Z,155
2018-06-08T05:07:54.667Z,155
2018-06-08T05:08:53.892Z,155
2018-06-08T05:09:54.012Z,155
2018-06-08T05:10:53.889Z,155
2018-06-08T05:11:54.660Z,155
2018-06-08T05:12:54.661Z,155
2018-06-08T05:13:54.396Z,155
2018-06-08T05:14:54.659Z,155
2018-06-08T05:15:53.876Z,155
2018-06-08T05:16:53.869Z,155
2018-06-08T05:17:54.384Z,160
2018-06-08T05:18:54.381Z,160
2018-06-08T05:19:54.374Z,160
2018-06-08T05:20:54.116Z,165
2018-06-08T05:21:53.854Z,165
2018-06-08T05:22:54.615Z,170
2018-06-08T05:23:54.364Z,170
2018-06-08T05:24:53.847Z,170
2018-06-08T05:25:54.620Z,170
2018-06-08T05:26:54.361Z,170
2018-06-08T05:27:53.835Z,175
2018-06-08T05:28:54.344Z,175
2018-06-08T05:29:54.609Z,175
2018-06-08T05:30:53.831Z,175
2018-06-08T05:31:54.213Z,175
2018-06-08T05:32:54.080Z,175
2018-06-08T05:33:54.595Z,175
2018-06-08T05:34:54.327Z,175
2018-06-08T05:35:54.338Z,170
2018-06-08T05:36:54.073Z,170
2018-06-08T05:37:54.331Z,170
2018-06-08T05:38:54.328Z,170
2018-06-08T05:39:54.319Z,170
2018-06-08T05:40:54.065Z,165
2018-06-08T05:41:54.316Z,165
2018-06-08T05:42:54.059Z,165
2018-06-08T05:43:54.057Z,165
2018-06-08T05:44:54.050Z,165
2018-06-08T05:45:54.311Z,170
2018-06-08T05:46:54.308Z,175
2018-06-08T05:47:54.303Z,180
2018-06-08T05:48:54.567Z,185
2018-06-08T05:49:54.309Z,185
2018-06-08T05:50:54.300Z,190
2018-06-08T05:51:54.596Z,190
2018-06-08T05:52:54.296Z,190
2018-06-08T05:53:54.524Z,195
2018-06-08T05:54:54.297Z,195
2018-06-08T05:55:54.289Z,200
2018-06-08T05:56:54.545Z,200
2018-06-08T05:57:54.280Z,200
2018-06-08T05:58:54.288Z,200
2018-06-08T05:59:54.025Z,200
2018-06-08T06:00:54.544Z,200
2018-06-08T06:01:54.277Z,200
2018-06-08T06:02:54.282Z,195
2018-06-08T06:03:54.016Z,195
2018-06-08T06:04:54.267Z,200
2018-06-08T06:05:54.023Z,200
2018-06-08T06:06:54.017Z,205
2018-06-08T06:07:54.261Z,205
2018-06-08T06:08:54.275Z,205
2018-06-08T06:09:54.014Z,205
2018-06-08T06:10:54.014Z,215
2018-06-08T06:11:54.268Z,210
2018-06-08T06:12:54.266Z,210
2018-06-08T06:13:54.521Z,210
2018-06-08T06:14:54.602Z,215
2018-06-08T06:15:54.521Z,215
2018-06-08T06:16:54.004Z,215
2018-06-08T06:17:54.264Z,215
2018-06-08T06:18:54.259Z,215
2018-06-08T06:19:53.745Z,215
2018-06-08T06:20:54.367Z,220
2018-06-08T06:21:54.002Z,220
2018-06-08T06:22:54.256Z,220
2018-06-08T06:23:54.253Z,220
2018-06-08T06:24:54.249Z,220
2018-06-08T06:25:54.515Z,225
2018-06-08T06:26:54.256Z,225
2018-06-08T06:27:54.253Z,225
2018-06-08T06:28:54.250Z,225
2018-06-08T06:29:54.509Z,225
2018-06-08T06:30:54.264Z,225
2018-06-08T06:31:54.523Z,225
2018-06-08T06:32:53.996Z,230
2018-06-08T06:33:54.252Z,235
2018-06-08T06:34:54.249Z,245
2018-06-08T06:35:53.994Z,250
2018-06-08T06:36:54.255Z,280
2018-06-08T06:37:54.514Z,340
2018-06-08T06:38:54.253Z,390
2018-06-08T06:39:54.512Z,400
2018-06-08T06:40:54.519Z,395
2018-06-08T06:41:54.003Z,390
2018-06-08T06:42:53.999Z,345
2018-06-08T06:43:54.522Z,345
2018-06-08T06:44:54.324Z,355
2018-06-08T06:45:54.554Z,380
2018-06-08T06:46:54.528Z,380
2018-06-08T06:47:53.741Z,385
2018-06-08T06:48:54.000Z,390
2018-06-08T06:49:54.516Z,405
2018-06-08T06:50:54.267Z,405
2018-06-08T06:51:54.526Z,405
2018-06-08T06:52:54.012Z,385
2018-06-08T06:53:54.265Z,390
2018-06-08T06:54:54.017Z,400
2018-06-08T06:55:54.023Z,420
2018-06-08T06:56:54.278Z,445
2018-06-08T06:57:54.283Z,460
2018-06-08T06:58:54.657Z,485
2018-06-08T06:59:54.286Z,495
2018-06-08T07:00:54.285Z,495
2018-06-08T07:01:54.557Z,495
2018-06-08T07:02:54.042Z,515
2018-06-08T07:03:54.309Z,500
2018-06-08T07:04:54.056Z,505
2018-06-08T07:05:54.060Z,510
2018-06-08T07:06:54.323Z,515
2018-06-08T07:07:54.591Z,520
2018-06-08T07:08:54.074Z,490
2018-06-08T07:09:53.820Z,510
2018-06-08T07:10:54.599Z,520
2018-06-08T07:11:54.348Z,540
2018-06-08T07:12:53.905Z,500
2018-06-08T07:13:54.359Z,515
2018-06-08T07:14:54.369Z,525
2018-06-08T07:15:54.372Z,530
2018-06-08T07:16:54.384Z,550
2018-06-08T07:17:53.879Z,545
2018-06-08T07:18:54.209Z,540
2018-06-08T07:19:54.401Z,545
2018-06-08T07:20:54.408Z,555
2018-06-08T07:21:54.417Z,555
2018-06-08T07:22:54.684Z,565
2018-06-08T07:23:53.656Z,555
2018-06-08T07:24:55.008Z,540
2018-06-08T07:25:53.933Z,535
2018-06-08T07:26:54.722Z,530
2018-06-08T07:27:54.215Z,540
2018-06-08T07:28:54.468Z,505
2018-06-08T07:29:54.228Z,515
2018-06-08T07:30:54.747Z,515
2018-06-08T07:31:54.133Z,505
2018-06-08T07:32:54.765Z,510
2018-06-08T07:33:54.519Z,515
2018-06-08T07:34:54.010Z,305
2018-06-08T07:35:54.273Z,305
2018-06-08T07:36:54.537Z,300
2018-06-08T07:37:54.554Z,495
2018-06-08T07:38:54.820Z,490
2018-06-08T07:39:54.923Z,510
2018-06-08T07:40:54.833Z,415
2018-06-08T07:41:54.591Z,360
2018-06-08T07:42:54.340Z,310
2018-06-08T07:43:54.083Z,480
2018-06-08T07:44:54.863Z,490
2018-06-08T07:45:54.354Z,500
2018-06-08T07:46:54.845Z,485
2018-06-08T07:47:54.369Z,475
2018-06-08T07:48:54.385Z,460
2018-06-08T07:49:54.652Z,420
2018-06-08T07:50:54.654Z,395
2018-06-08T07:51:54.660Z,365
2018-06-08T07:52:54.160Z,315
2018-06-08T07:53:54.842Z,340
2018-06-08T07:54:54.943Z,345
2018-06-08T07:55:54.472Z,330
2018-06-08T07:56:54.693Z,335
2018-06-08T07:57:54.959Z,315
2018-06-08T07:58:54.713Z,325
2018-06-08T07:59:54.461Z,340
2018-06-08T08:00:54.471Z,335
2018-06-08T08:01:54.743Z,340
2018-06-08T08:02:54.754Z,360
2018-06-08T08:03:54.541Z,370
2018-06-08T08:04:54.507Z,360
2018-06-08T08:05:54.515Z,355
2018-06-08T08:06:54.780Z,350
2018-06-08T08:07:54.267Z,360
2018-06-08T08:08:54.527Z,370
2018-06-08T08:09:54.797Z,390
2018-06-08T08:10:55.068Z,415
2018-06-08T08:11:54.292Z,420
2018-06-08T08:12:55.070Z,410
2018-06-08T08:13:54.834Z,400
2018-06-08T08:14:55.174Z,390
2018-06-08T08:15:54.579Z,380
2018-06-08T08:16:55.098Z,370
2018-06-08T08:17:54.607Z,360
2018-06-08T08:18:54.585Z,340
2018-06-08T08:19:54.858Z,325
2018-06-08T08:20:54.864Z,295
2018-06-08T08:21:54.871Z,285
2018-06-08T08:22:54.872Z,280
2018-06-08T08:23:55.141Z,275
2018-06-08T08:24:54.898Z,290
2018-06-08T08:25:54.132Z,325
2018-06-08T08:26:54.642Z,350
2018-06-08T08:27:54.648Z,380
2018-06-08T08:28:54.906Z,410
2018-06-08T08:29:54.907Z,440
2018-06-08T08:30:54.924Z,475
2018-06-08T08:31:55.183Z,495
2018-06-08T08:32:54.922Z,480
2018-06-08T08:33:54.681Z,485
2018-06-08T08:34:54.680Z,465
2018-06-08T08:35:54.937Z,455
2018-06-08T08:36:55.213Z,440
2018-06-08T08:37:54.957Z,445
2018-06-08T08:38:55.213Z,435
2018-06-08T08:39:55.281Z,425
2018-06-08T08:40:54.706Z,400
2018-06-08T08:41:54.964Z,380
2018-06-08T08:42:54.724Z,365
2018-06-08T08:43:54.979Z,360
2018-06-08T08:44:54.992Z,340
2018-06-08T08:45:55.013Z,365
2018-06-08T08:46:55.255Z,365
2018-06-08T08:47:54.999Z,355
2018-06-08T08:48:54.488Z,370
2018-06-08T08:49:55.012Z,370
2018-06-08T08:50:54.759Z,365
2018-06-08T08:51:55.072Z,370
2018-06-08T08:52:55.019Z,360
2018-06-08T08:53:54.770Z,365
2018-06-08T08:54:55.044Z,345
2018-06-08T08:55:55.298Z,350
2018-06-08T08:56:55.803Z,330
2018-06-08T08:57:55.310Z,335
2018-06-08T08:58:55.309Z,345
2018-06-08T08:59:54.804Z,345
2018-06-08T09:00:55.081Z,345
2018-06-08T09:01:54.817Z,355
2018-06-08T09:02:55.114Z,370
2018-06-08T09:03:55.569Z,385
2018-06-08T09:04:55.098Z,395
2018-06-08T09:05:55.339Z,370
2018-06-08T09:06:55.356Z,375
2018-06-08T09:07:54.836Z,395
2018-06-08T09:08:55.109Z,405
2018-06-08T09:09:55.106Z,435
2018-06-08T09:10:55.370Z,455
2018-06-08T09:11:55.118Z,455
2018-06-08T09:12:55.114Z,460
2018-06-08T09:13:54.606Z,470
2018-06-08T09:14:55.388Z,475
2018-06-08T09:15:55.132Z,475
2018-06-08T09:16:55.387Z,475
2018-06-08T09:17:55.406Z,485
2018-06-08T09:18:55.404Z,495
2018-06-08T09:19:55.157Z,520
2018-06-08T09:20:55.174Z,545
2018-06-08T09:21:54.646Z,545
2018-06-08T09:22:55.430Z,545
2018-06-08T09:23:54.655Z,545
2018-06-08T09:24:54.652Z,530
2018-06-08T09:25:55.190Z,525
2018-06-08T09:26:55.449Z,510
2018-06-08T09:27:55.197Z,475
2018-06-08T09:28:55.189Z,460
2018-06-08T09:29:55.194Z,460
2018-06-08T09:30:55.204Z,475
2018-06-08T09:31:55.467Z,465
2018-06-08T09:32:55.213Z,450
2018-06-08T09:33:55.226Z,445
2018-06-08T09:34:55.223Z,430
2018-06-08T09:35:55.228Z,425
2018-06-08T09:36:55.504Z,405
2018-06-08T09:37:54.987Z,390
2018-06-08T09:38:55.509Z,370
2018-06-08T09:39:54.484Z,365
2018-06-08T09:40:55.521Z,385
2018-06-08T09:41:55.271Z,400
2018-06-08T09:42:55.273Z,425
2018-06-08T09:43:55.292Z,455
2018-06-08T09:44:55.030Z,455
2018-06-08T09:45:55.650Z,470
2018-06-08T09:46:55.285Z,480
2018-06-08T09:47:54.777Z,480
2018-06-08T09:48:55.041Z,470
2018-06-08T09:49:54.794Z,450
2018-06-08T09:50:54.801Z,430
2018-06-08T09:51:55.310Z,410
2018-06-08T09:52:55.578Z,415
2018-06-08T09:53:55.065Z,380
2018-06-08T09:54:55.140Z,360
2018-06-08T09:55:55.590Z,340
2018-06-08T09:56:55.343Z,320
2018-06-08T09:57:55.092Z,310
2018-06-08T09:58:55.356Z,310
2018-06-08T09:59:55.475Z,330
2018-06-08T10:00:55.629Z,325
2018-06-08T10:01:55.370Z,335
2018-06-08T10:02:54.855Z,330
2018-06-08T10:03:55.920Z,320
2018-06-08T10:04:55.994Z,320
2018-06-08T10:05:55.421Z,320
2018-06-08T10:06:55.143Z,325
2018-06-08T10:07:55.660Z,330
2018-06-08T10:08:55.146Z,340
2018-06-08T10:09:55.412Z,350
2018-06-08T10:10:55.156Z,360
2018-06-08T10:11:55.679Z,355
2018-06-08T10:12:55.683Z,330
2018-06-08T10:13:55.176Z,325
2018-06-08T10:14:55.956Z,330
2018-06-08T10:15:55.443Z,340
2018-06-08T10:16:55.454Z,355
2018-06-08T10:17:55.447Z,385
2018-06-08T10:18:55.713Z,380
2018-06-08T10:19:55.711Z,385
2018-06-08T10:20:55.285Z,375
2018-06-08T10:21:55.747Z,365
2018-06-08T10:22:55.472Z,370
2018-06-08T10:23:55.223Z,375
2018-06-08T10:24:55.740Z,360
2018-06-08T10:25:55.742Z,340
2018-06-08T10:26:55.493Z,325
2018-06-08T10:27:55.528Z,330
2018-06-08T10:28:55.768Z,330
2018-06-08T10:29:55.252Z,335
2018-06-08T10:30:55.503Z,330
2018-06-08T10:31:55.511Z,320
2018-06-08T10:32:55.522Z,320
2018-06-08T10:33:54.754Z,310
2018-06-08T10:34:55.533Z,300
2018-06-08T10:35:55.551Z,295
2018-06-08T10:36:55.798Z,285
2018-06-08T10:37:55.286Z,285
2018-06-08T10:38:55.545Z,285
2018-06-08T10:39:55.617Z,285
2018-06-08T10:40:55.566Z,280
2018-06-08T10:41:55.305Z,280
2018-06-08T10:42:55.312Z,285
2018-06-08T10:43:55.058Z,285
2018-06-08T10:44:55.317Z,285
2018-06-08T10:45:55.836Z,285
2018-06-08T10:46:55.596Z,290
2018-06-08T10:47:55.594Z,295
2018-06-08T10:48:55.079Z,295
2018-06-08T10:49:55.347Z,295
2018-06-08T10:50:55.869Z,295
2018-06-08T10:51:55.350Z,300
2018-06-08T10:52:55.613Z,305
2018-06-08T10:53:55.880Z,315
2018-06-08T10:54:55.881Z,320
2018-06-08T10:55:55.638Z,320
2018-06-08T10:56:55.888Z,315
2018-06-08T10:57:55.646Z,315
2018-06-08T10:58:55.117Z,305
2018-06-08T10:59:55.637Z,300
2018-06-08T11:00:55.646Z,300
2018-06-08T11:01:55.398Z,290
2018-06-08T11:02:55.664Z,290
2018-06-08T11:03:55.922Z,290
2018-06-08T11:04:55.920Z,290
2018-06-08T11:05:55.411Z,295
2018-06-08T11:06:55.678Z,300
2018-06-08T11:07:55.675Z,300
2018-06-08T11:08:55.737Z,295
2018-06-08T11:09:55.682Z,300
2018-06-08T11:10:55.936Z,315
2018-06-08T11:11:56.206Z,320
2018-06-08T11:12:56.982Z,320
2018-06-08T11:13:56.750Z,305
2018-06-08T11:14:56.066Z,305
2018-06-08T11:15:55.973Z,320
2018-06-08T11:16:56.142Z,315
2018-06-08T11:17:55.465Z,310
2018-06-08T11:18:55.468Z,305
2018-06-08T11:19:55.266Z,305
2018-06-08T11:20:55.730Z,305
2018-06-08T11:21:55.492Z,310
2018-06-08T11:22:55.305Z,310
2018-06-08T11:23:55.572Z,315
2018-06-08T11:24:56.011Z,325
2018-06-08T11:25:55.757Z,340
2018-06-08T11:26:55.528Z,350
2018-06-08T11:27:56.054Z,360
2018-06-08T11:28:55.768Z,365
2018-06-08T11:29:54.998Z,360
2018-06-08T11:30:55.788Z,380
2018-06-08T11:31:55.793Z,380
2018-06-08T11:32:55.815Z,370
2018-06-08T11:33:55.797Z,380
2018-06-08T11:34:55.537Z,390
2018-06-08T11:35:56.552Z,415
2018-06-08T11:36:56.028Z,425
2018-06-08T11:37:55.812Z,430
2018-06-08T11:38:56.010Z,440
2018-06-08T11:39:55.562Z,455
2018-06-08T11:40:56.269Z,460
2018-06-08T11:41:56.005Z,460
2018-06-08T11:42:55.978Z,455
2018-06-08T11:43:56.318Z,455
2018-06-08T11:44:55.894Z,435
2018-06-08T11:45:56.997Z,430
2018-06-08T11:46:55.957Z,415
2018-06-08T11:47:56.527Z,400
2018-06-08T11:48:56.317Z,375
2018-06-08T11:49:55.693Z,370
2018-06-08T11:50:56.154Z,375
2018-06-08T11:51:56.009Z,375
2018-06-08T11:52:55.871Z,370
2018-06-08T11:53:56.488Z,365
2018-06-08T11:54:56.112Z,360
2018-06-08T11:55:56.421Z,365
2018-06-08T11:56:56.773Z,365
2018-06-08T11:57:56.127Z,375
2018-06-08T11:58:56.104Z,380
2018-06-08T11:59:56.311Z,375
2018-06-08T12:00:55.671Z,375
2018-06-08T12:01:56.492Z,375
2018-06-08T12:02:55.686Z,370
2018-06-08T12:03:55.683Z,375
2018-06-08T12:04:55.950Z,375
2018-06-08T12:05:55.958Z,365
2018-06-08T12:06:55.702Z,365
2018-06-08T12:07:55.965Z,365
2018-06-08T12:08:55.710Z,360
2018-06-08T12:09:55.743Z,360
2018-06-08T12:10:56.384Z,350
2018-06-08T12:11:55.987Z,355
2018-06-08T12:12:55.930Z,355
2018-06-08T12:13:56.461Z,355
2018-06-08T12:14:56.272Z,360
2018-06-08T12:15:55.914Z,365
2018-06-08T12:16:55.747Z,375
2018-06-08T12:17:56.012Z,380
2018-06-08T12:18:56.023Z,380
2018-06-08T12:19:56.314Z,385
2018-06-08T12:20:56.284Z,390
2018-06-08T12:21:55.776Z,405
2018-06-08T12:22:55.524Z,415
2018-06-08T12:23:55.781Z,415
2018-06-08T12:24:55.794Z,420
2018-06-08T12:25:55.799Z,430
2018-06-08T12:26:56.060Z,440
2018-06-08T12:27:56.060Z,440
2018-06-08T12:28:56.321Z,450
2018-06-08T12:29:56.079Z,465
2018-06-08T12:30:56.269Z,455
2018-06-08T12:31:56.083Z,445
2018-06-08T12:32:56.102Z,435
2018-06-08T12:33:55.846Z,430
2018-06-08T12:34:56.358Z,420
2018-06-08T12:35:55.847Z,405
2018-06-08T12:36:56.113Z,395
2018-06-08T12:37:55.602Z,385
2018-06-08T12:38:56.130Z,365
2018-06-08T12:39:56.384Z,355
2018-06-08T12:40:55.883Z,335
2018-06-08T12:41:56.397Z,335
2018-06-08T12:42:56.141Z,350
2018-06-08T12:43:56.143Z,350
2018-06-08T12:44:56.150Z,345
2018-06-08T12:45:55.388Z,340
2018-06-08T12:46:56.157Z,340
2018-06-08T12:47:55.401Z,340
2018-06-08T12:48:56.289Z,345
2018-06-08T12:49:56.177Z,345
2018-06-08T12:50:56.195Z,350
2018-06-08T12:51:56.444Z,355
2018-06-08T12:52:56.148Z,375
2018-06-08T12:53:56.656Z,385
2018-06-08T12:54:56.323Z,400
2018-06-08T12:55:55.693Z,410
2018-06-08T12:56:56.228Z,410
2018-06-08T12:57:56.224Z,415
2018-06-08T12:58:56.501Z,420
2018-06-08T12:59:56.230Z,425
2018-06-08T13:00:55.722Z,420
2018-06-08T13:01:56.495Z,420
2018-06-08T13:02:55.996Z,420
2018-06-08T13:03:56.250Z,430
2018-06-08T13:04:56.641Z,435
2018-06-08T13:05:56.006Z,440
2018-06-08T13:06:56.011Z,445
2018-06-08T13:07:56.525Z,435
2018-06-08T13:08:56.023Z,430
2018-06-08T13:09:56.457Z,420
2018-06-08T13:10:56.544Z,405
2018-06-08T13:11:56.551Z,390
2018-06-08T13:12:56.036Z,380
2018-06-08T13:13:56.299Z,370
2018-06-08T13:14:55.530Z,355
2018-06-08T13:15:56.366Z,345
2018-06-08T13:16:56.909Z,335
2018-06-08T13:17:56.570Z,325
2018-06-08T13:18:56.584Z,310
2018-06-08T13:19:56.071Z,295
2018-06-08T13:20:56.601Z,290
2018-06-08T13:21:56.090Z,290
2018-06-08T13:22:56.371Z,295
2018-06-08T13:23:56.614Z,300
2018-06-08T13:24:56.185Z,305
2018-06-08T13:25:56.364Z,310
2018-06-08T13:26:56.373Z,315
2018-06-08T13:27:56.377Z,320
2018-06-08T13:28:56.383Z,325
2018-06-08T13:29:56.386Z,320
2018-06-08T13:30:56.388Z,315
2018-06-08T13:31:56.399Z,300
2018-06-08T13:32:56.508Z,290
2018-06-08T13:33:56.664Z,285
2018-06-08T13:34:56.158Z,275
2018-06-08T13:35:56.673Z,265
2018-06-08T13:36:55.899Z,260
2018-06-08T13:37:56.420Z,265
2018-06-08T13:38:56.435Z,270
2018-06-08T13:39:56.453Z,270
2018-06-08T13:40:56.437Z,270
2018-06-08T13:41:56.185Z,270
2018-06-08T13:42:56.446Z,270
2018-06-08T13:43:56.188Z,280
2018-06-08T13:44:56.451Z,295
2018-06-08T13:45:56.460Z,305
2018-06-08T13:46:56.717Z,315
2018-06-08T13:47:56.463Z,320
2018-06-08T13:48:56.733Z,325
2018-06-08T13:49:56.479Z,335
2018-06-08T13:50:56.673Z,340
2018-06-08T13:51:56.486Z,340
2018-06-08T13:52:56.232Z,345
2018-06-08T13:53:56.544Z,345
2018-06-08T13:54:56.499Z,340
2018-06-08T13:55:56.504Z,330
2018-06-08T13:56:56.246Z,310
2018-06-08T13:57:56.766Z,295
2018-06-08T13:58:56.505Z,290
2018-06-08T13:59:56.534Z,285
2018-06-08T14:00:56.272Z,280